Lakebay, Washington
Current Conditions -  °F | °C
As of 2:53 AM on Saturday 25 Oct 2014 (Local Time) from KTIW Reporting Station
Scattered Clouds Scattered Clouds  
Wind Chill: 50°   Ceiling: Unl
Heat Index: 50°   Visibility: 10mi
Dew Point: 47°   Wind: 8mph
Humidity: 89%   Direction: 350°N
Pressure: 29.62"   Gusts: NA
Location:  47.26°N, 122.76°W
Report Text: KTIW 250953Z AUTO 35007KT 10SM SCT090 10/08 A2962 RMK AO2 SLP029 T01000083
Loading
Personal Weather Stations






























Interactive Weather Map
Tropical Storm Tracking
New forecast layout! Learn more

10-Day Weather Forecast

Advertisements
Track Severe Weather on mobile